Time;durP1;ratioP1;P1;durP2;ratioP2;P2;SDS_P1;SDS_P2;PMS_P1;PMS_P2;Temp;Humidity;BMP_temperature;BMP_pressure;BME280_temperature;BME280_humidity;BME280_pressure;Samples;Min_cycle;Max_cycle;Signal;HPM_P1;HPM_P2
2023/02/11 00:01:10;;;;;;;13.30;8.40;;;7.20;95.10;;;;;;5054955;28;20192;-87
2023/02/11 00:03:39;;;;;;;15.27;8.23;;;7.30;95.00;;;;;;5055230;28;20166;-86
2023/02/11 00:06:09;;;;;;;15.47;8.60;;;7.20;94.20;;;;;;5051939;28;20174;-85
2023/02/11 00:08:36;;;;;;;15.63;9.10;;;7.10;95.30;;;;;;5053086;28;20169;-88
2023/02/11 00:11:06;;;;;;;15.07;8.87;;;7.30;96.40;;;;;;5056678;28;20166;-86
2023/02/11 00:13:34;;;;;;;15.83;8.03;;;7.20;96.70;;;;;;5058592;28;20170;-83
2023/02/11 00:16:12;;;;;;;15.93;8.73;;;7.00;97.30;;;;;;5056979;28;20244;-82
2023/02/11 00:18:38;;;;;;;19.27;8.63;;;7.10;97.30;;;;;;5038483;28;20162;-86
2023/02/11 00:21:09;;;;;;;13.63;8.17;;;7.10;97.00;;;;;;5045310;28;20212;-84
2023/02/11 00:23:38;;;;;;;12.50;8.17;;;7.10;98.20;;;;;;5045884;28;20241;-88
2023/02/11 00:26:31;;;;;;;16.93;8.63;;;6.90;99.20;;;;;;5029414;28;20205;-85
2023/02/11 00:29:04;;;;;;;14.37;8.63;;;6.90;99.80;;;;;;5030704;28;20634;-86
2023/02/11 00:31:36;;;;;;;14.37;7.63;;;7.00;99.90;;;;;;5039274;28;20198;-86
2023/02/11 00:34:02;;;;;;;14.57;7.20;;;7.00;98.50;;;;;;5026258;28;20198;-82
2023/02/11 00:36:29;;;;;;;16.00;8.13;;;7.00;98.60;;;;;;5022675;28;20580;-84
2023/02/11 00:39:00;;;;;;;13.87;8.00;;;6.90;98.90;;;;;;5023100;28;20166;-86
2023/02/11 00:41:26;;;;;;;18.37;8.13;;;7.10;99.30;;;;;;5039942;28;20209;-85
2023/02/11 00:43:53;;;;;;;15.83;8.13;;;7.00;96.60;;;;;;5025858;28;20632;-84
2023/02/11 00:46:20;;;;;;;13.53;7.07;;;6.90;97.10;;;;;;5026061;28;20158;-88
2023/02/11 00:48:50;;;;;;;13.10;8.07;;;6.90;98.80;;;;;;5039852;28;20176;-85
2023/02/11 00:51:17;;;;;;;14.13;7.37;;;6.90;99.00;;;;;;5022363;28;20233;-85
2023/02/11 00:53:44;;;;;;;15.97;8.37;;;6.80;99.10;;;;;;5038806;28;20201;-83
2023/02/11 00:56:09;;;;;;;14.50;8.27;;;6.80;99.90;;;;;;5022672;28;20170;-87
2023/02/11 00:58:36;;;;;;;14.73;7.90;;;6.70;99.90;;;;;;5021894;28;20697;-83
2023/02/11 01:01:02;;;;;;;15.97;8.00;;;6.70;99.90;;;;;;5020487;28;20190;-83
2023/02/11 01:03:28;;;;;;;14.60;7.60;;;6.60;99.90;;;;;;5024138;28;20173;-81
2023/02/11 01:05:54;;;;;;;10.97;7.63;;;6.60;99.90;;;;;;5027470;28;20234;-84
2023/02/11 01:08:20;;;;;;;17.77;8.87;;;6.60;99.90;;;;;;5041391;28;20179;-84
2023/02/11 01:10:56;;;;;;;19.03;8.40;;;6.60;99.90;;;;;;5025984;28;20689;-84
2023/02/11 01:13:23;;;;;;;16.07;9.17;;;6.60;99.90;;;;;;5037455;28;20178;-85
2023/02/11 01:15:49;;;;;;;13.60;8.00;;;6.60;99.90;;;;;;5016890;28;20248;-85
2023/02/11 01:18:16;;;;;;;14.33;7.90;;;6.70;99.90;;;;;;5020605;28;20630;-85
2023/02/11 01:20:42;;;;;;;16.90;8.03;;;6.70;99.90;;;;;;5039230;28;20243;-82
2023/02/11 01:23:08;;;;;;;15.20;7.70;;;6.70;99.90;;;;;;5036770;28;20654;-81
2023/02/11 01:25:34;;;;;;;16.30;8.37;;;6.70;99.90;;;;;;5018596;28;20204;-84
2023/02/11 01:28:01;;;;;;;12.67;8.27;;;6.60;99.90;;;;;;5020670;28;20166;-84
2023/02/11 01:30:27;;;;;;;13.17;8.10;;;6.80;99.90;;;;;;5021225;28;20166;-87
2023/02/11 01:32:53;;;;;;;14.53;8.47;;;6.80;99.90;;;;;;5037573;28;20189;-87
2023/02/11 01:35:20;;;;;;;15.53;7.97;;;6.80;99.90;;;;;;5017425;28;20264;-86
2023/02/11 01:37:45;;;;;;;14.27;8.10;;;6.50;99.90;;;;;;5017823;28;20181;-85
2023/02/11 01:40:16;;;;;;;14.83;7.77;;;6.60;99.90;;;;;;5021081;28;20182;-84
2023/02/11 01:42:48;;;;;;;11.63;7.80;;;6.70;99.90;;;;;;5019754;28;20166;-86
2023/02/11 01:45:46;;;;;;;12.50;7.50;;;6.60;99.90;;;;;;5021496;28;20178;-86
2023/02/11 01:48:19;;;;;;;16.87;8.43;;;6.60;99.90;;;;;;5019239;28;20197;-83
2023/02/11 01:50:49;;;;;;;20.33;8.33;;;6.70;99.90;;;;;;5033122;28;20274;-86
2023/02/11 01:58:49;;;;;;;18.33;8.87;;;6.50;99.90;;;;;;5024456;28;20177;-86
2023/02/11 02:01:20;;;;;;;15.73;8.13;;;6.60;99.90;;;;;;5022761;28;20178;-82
2023/02/11 02:03:49;;;;;;;16.83;8.40;;;6.60;99.90;;;;;;5048251;28;20237;-80
2023/02/11 02:06:26;;;;;;;15.53;8.40;;;6.60;99.90;;;;;;5053195;28;20186;-85
2023/02/11 02:09:16;;;;;;;16.10;8.20;;;6.70;99.90;;;;;;5048507;28;20249;-83
2023/02/11 02:12:04;;;;;;;14.83;7.90;;;6.70;99.90;;;;;;5034464;28;20568;-85
2023/02/11 02:14:38;;;;;;;11.73;7.27;;;6.80;99.90;;;;;;5021472;28;20748;-87
2023/02/11 02:17:09;;;;;;;15.63;7.83;;;6.70;99.90;;;;;;5036272;28;20192;-84
2023/02/11 02:20:05;;;;;;;15.03;8.00;;;6.70;99.90;;;;;;5020246;28;20166;-85
2023/02/11 02:23:03;;;;;;;13.67;7.10;;;6.60;99.90;;;;;;5016998;28;20182;-82
2023/02/11 02:25:46;;;;;;;12.07;7.43;;;6.70;99.90;;;;;;5017063;28;20190;-84
2023/02/11 02:28:32;;;;;;;13.30;7.97;;;6.80;99.90;;;;;;5023180;28;20396;-86
2023/02/11 02:31:24;;;;;;;17.00;7.63;;;6.80;99.90;;;;;;5036454;28;20173;-85
2023/02/11 02:34:21;;;;;;;11.93;7.17;;;6.80;99.90;;;;;;5036619;28;20182;-84
2023/02/11 02:37:20;;;;;;;13.43;7.53;;;6.90;99.90;;;;;;5048006;28;20237;-86
2023/02/11 02:39:48;;;;;;;14.10;7.70;;;7.00;99.90;;;;;;5026215;28;20645;-85
2023/02/11 02:42:21;;;;;;;17.33;7.90;;;6.90;99.90;;;;;;5020012;28;20167;-86
2023/02/11 02:44:49;;;;;;;16.70;6.47;;;7.00;99.90;;;;;;5022330;28;20205;-86
2023/02/11 02:47:15;;;;;;;14.67;7.70;;;7.00;99.90;;;;;;5023358;28;20174;-85
2023/02/11 02:49:41;;;;;;;14.90;7.30;;;6.90;99.90;;;;;;5019863;28;20220;-86
2023/02/11 02:52:18;;;;;;;15.83;7.33;;;6.80;99.90;;;;;;5024210;28;20596;-85
2023/02/11 02:55:15;;;;;;;15.47;7.00;;;6.90;99.90;;;;;;5027477;28;20205;-86
2023/02/11 02:58:00;;;;;;;11.57;6.83;;;7.10;99.90;;;;;;5025729;28;20232;-85
2023/02/11 03:01:02;;;;;;;14.23;7.60;;;7.10;99.90;;;;;;5020648;28;20183;-86
2023/02/11 03:03:59;;;;;;;11.83;6.53;;;7.00;99.90;;;;;;5018990;28;20182;-86
2023/02/11 03:06:30;;;;;;;14.23;6.97;;;7.10;99.90;;;;;;5023841;28;20259;-83
2023/02/11 03:09:11;;;;;;;11.60;7.10;;;7.00;99.90;;;;;;5023499;28;20248;-86
2023/02/11 03:11:38;;;;;;;12.93;7.33;;;7.10;99.90;;;;;;5024545;28;20166;-85
2023/02/11 03:14:08;;;;;;;15.40;7.10;;;7.10;99.90;;;;;;5018952;28;20206;-88
2023/02/11 03:16:37;;;;;;;15.40;6.67;;;7.10;99.90;;;;;;5024283;28;20186;-87
2023/02/11 03:19:19;;;;;;;14.47;7.40;;;7.00;99.90;;;;;;5019559;28;20710;-85
2023/02/11 03:21:47;;;;;;;13.60;7.27;;;7.10;99.90;;;;;;5022057;28;20176;-86
2023/02/11 03:24:31;;;;;;;13.17;7.43;;;7.00;99.90;;;;;;5019354;28;20182;-86
2023/02/11 03:27:09;;;;;;;14.73;8.50;;;7.00;99.90;;;;;;5037278;28;20410;-84
2023/02/11 03:29:53;;;;;;;12.27;6.90;;;7.10;99.90;;;;;;5023680;28;20178;-86
2023/02/11 03:32:28;;;;;;;15.90;7.50;;;7.00;99.90;;;;;;5022237;28;20265;-88
2023/02/11 03:35:05;;;;;;;15.70;8.57;;;7.00;99.90;;;;;;5025489;28;20202;-84
2023/02/11 03:38:04;;;;;;;13.23;8.30;;;7.10;99.90;;;;;;5027837;28;20197;-85
2023/02/11 03:40:34;;;;;;;16.53;7.77;;;7.20;99.90;;;;;;5020569;28;20178;-81
2023/02/11 03:43:09;;;;;;;14.27;7.60;;;7.30;99.90;;;;;;5023035;28;20324;-86
2023/02/11 03:45:36;;;;;;;14.27;7.80;;;7.20;99.90;;;;;;5018332;28;20666;-86
2023/02/11 03:48:14;;;;;;;14.23;7.67;;;7.40;99.90;;;;;;5018631;28;20185;-86
2023/02/11 03:50:41;;;;;;;13.83;7.77;;;7.30;99.90;;;;;;5021123;28;20182;-84
2023/02/11 03:53:07;;;;;;;12.30;7.37;;;7.10;99.90;;;;;;5021160;28;20178;-84
2023/02/11 03:55:38;;;;;;;12.50;7.70;;;7.10;99.90;;;;;;5028027;28;20194;-87
2023/02/11 03:58:04;;;;;;;16.57;7.47;;;7.10;99.90;;;;;;5020758;28;20252;-87
2023/02/11 04:00:31;;;;;;;12.90;8.00;;;7.10;99.90;;;;;;5017929;28;20634;-87
2023/02/11 04:02:57;;;;;;;13.00;8.00;;;7.20;99.90;;;;;;5050286;28;20162;-86
2023/02/11 04:05:24;;;;;;;12.50;7.60;;;7.10;99.90;;;;;;5029600;28;20161;-87
2023/02/11 04:07:53;;;;;;;15.37;8.07;;;7.10;99.90;;;;;;5053449;28;20180;-80
2023/02/11 04:10:20;;;;;;;17.87;8.20;;;7.10;99.90;;;;;;5048831;28;20213;-86
2023/02/11 04:12:49;;;;;;;15.70;8.10;;;7.20;99.90;;;;;;5026473;28;20193;-85
2023/02/11 04:15:16;;;;;;;15.47;8.67;;;7.20;99.90;;;;;;5028173;28;20222;-86
2023/02/11 04:17:47;;;;;;;16.30;8.80;;;7.10;99.90;;;;;;5029972;28;20202;-85
2023/02/11 04:20:13;;;;;;;16.03;8.43;;;7.10;99.90;;;;;;5030166;28;20162;-84
2023/02/11 04:22:39;;;;;;;17.27;8.73;;;7.10;99.90;;;;;;5047213;28;20159;-83
2023/02/11 04:25:05;;;;;;;13.83;8.70;;;7.20;99.90;;;;;;5055529;28;20213;-82
2023/02/11 04:27:31;;;;;;;16.10;8.13;;;7.30;99.90;;;;;;5029034;28;20183;-82
2023/02/11 04:30:00;;;;;;;15.77;8.17;;;7.30;99.90;;;;;;5040017;28;20196;-86
2023/02/11 04:32:27;;;;;;;20.27;8.80;;;7.40;99.90;;;;;;5021609;28;20241;-84
2023/02/11 04:34:53;;;;;;;14.63;8.47;;;7.20;99.90;;;;;;5018498;28;20225;-82
2023/02/11 04:37:19;;;;;;;14.07;8.40;;;7.30;99.90;;;;;;5035910;28;20178;-84
2023/02/11 04:39:45;;;;;;;17.87;9.00;;;7.30;99.90;;;;;;5046807;28;20197;-85
2023/02/11 04:42:11;;;;;;;17.00;8.97;;;7.40;99.90;;;;;;5019136;28;20162;-86
2023/02/11 04:44:37;;;;;;;16.90;9.43;;;7.30;99.90;;;;;;5018039;28;20174;-86
2023/02/11 04:47:03;;;;;;;15.13;8.30;;;7.40;99.90;;;;;;5018732;28;20178;-84
2023/02/11 04:49:28;;;;;;;12.00;8.33;;;7.40;99.90;;;;;;5033953;28;20526;-85
2023/02/11 04:51:54;;;;;;;16.13;9.17;;;7.40;99.90;;;;;;5018329;28;20189;-84
2023/02/11 04:54:20;;;;;;;17.20;9.67;;;7.70;99.90;;;;;;5017362;28;20206;-87
2023/02/11 04:56:48;;;;;;;16.20;9.57;;;8.00;99.90;;;;;;5020191;28;20174;-85
2023/02/11 04:59:14;;;;;;;16.90;9.43;;;7.80;99.90;;;;;;5037083;28;20181;-88
2023/02/11 05:01:41;;;;;;;17.10;9.40;;;7.70;99.90;;;;;;5035879;28;20252;-86
2023/02/11 05:04:07;;;;;;;15.80;9.13;;;7.70;99.80;;;;;;5052641;28;20173;-86
2023/02/11 05:06:35;;;;;;;16.30;9.93;;;7.90;98.70;;;;;;5037472;28;20224;-86
2023/02/11 05:09:01;;;;;;;14.63;9.33;;;7.90;98.30;;;;;;5035981;28;20161;-86
2023/02/11 05:11:27;;;;;;;23.50;10.23;;;7.70;99.40;;;;;;5037307;28;20642;-84
2023/02/11 05:13:52;;;;;;;17.07;9.30;;;7.60;99.90;;;;;;5035410;28;20546;-82
2023/02/11 05:16:19;;;;;;;20.90;10.43;;;7.50;99.90;;;;;;5035081;28;20790;-83
2023/02/11 05:18:45;;;;;;;14.13;9.53;;;7.50;99.90;;;;;;5037100;28;20168;-84
2023/02/11 05:21:16;;;;;;;18.20;9.80;;;7.50;99.90;;;;;;5037344;28;20272;-86
2023/02/11 05:23:43;;;;;;;19.83;10.63;;;7.50;99.90;;;;;;5039137;28;20169;-86
2023/02/11 05:26:09;;;;;;;17.20;10.30;;;7.60;99.90;;;;;;5037345;28;20193;-85
2023/02/11 05:28:36;;;;;;;16.30;9.90;;;7.50;99.90;;;;;;5036240;28;20179;-87
2023/02/11 05:31:02;;;;;;;19.50;11.83;;;7.50;99.90;;;;;;5040485;28;20173;-86
2023/02/11 05:33:27;;;;;;;20.93;10.83;;;7.40;99.90;;;;;;5044747;28;20158;-84
2023/02/11 05:36:01;;;;;;;20.77;11.20;;;7.30;99.90;;;;;;5043403;28;20213;-86
2023/02/11 05:38:26;;;;;;;18.30;10.73;;;7.30;99.90;;;;;;5034724;28;20173;-86
2023/02/11 05:40:53;;;;;;;17.03;10.30;;;7.30;99.90;;;;;;5040225;28;20207;-87
2023/02/11 05:43:19;;;;;;;17.40;11.43;;;7.40;99.90;;;;;;5045525;28;20166;-87
2023/02/11 05:45:44;;;;;;;17.43;11.17;;;7.40;99.90;;;;;;5040753;28;20191;-85
2023/02/11 05:48:10;;;;;;;19.70;12.17;;;7.40;99.90;;;;;;5048427;28;20219;-85
2023/02/11 05:50:36;;;;;;;19.43;11.00;;;7.30;99.90;;;;;;5037057;28;20192;-86
2023/02/11 05:53:05;;;;;;;18.47;11.53;;;7.40;99.90;;;;;;5036322;28;20174;-86
2023/02/11 05:55:33;;;;;;;19.70;12.03;;;7.40;99.90;;;;;;5040287;28;20217;-83
2023/02/11 05:57:59;;;;;;;19.83;12.07;;;7.50;99.90;;;;;;5038367;28;20166;-86
2023/02/11 06:00:25;;;;;;;18.77;12.03;;;7.40;99.90;;;;;;5037981;28;20184;-85
2023/02/11 06:02:50;;;;;;;21.53;12.43;;;7.50;99.90;;;;;;5037453;28;20181;-84
2023/02/11 06:05:16;;;;;;;16.57;12.57;;;7.50;99.90;;;;;;5034004;28;20174;-85
2023/02/11 06:07:42;;;;;;;22.07;12.73;;;7.40;99.90;;;;;;5037276;28;20175;-86
2023/02/11 06:10:09;;;;;;;21.27;12.90;;;7.40;99.90;;;;;;5037858;28;20181;-86
2023/02/11 06:12:36;;;;;;;25.23;13.33;;;7.40;99.90;;;;;;5039428;28;20185;-83
2023/02/11 06:15:02;;;;;;;26.20;13.87;;;7.40;99.90;;;;;;5054014;28;20219;-86
2023/02/11 06:17:32;;;;;;;26.97;14.00;;;7.40;99.90;;;;;;5040580;28;20197;-86
2023/02/11 06:20:07;;;;;;;23.53;13.73;;;7.50;99.90;;;;;;5039277;28;20165;-87
2023/02/11 06:22:33;;;;;;;24.57;13.70;;;7.50;99.90;;;;;;5037391;28;20172;-85
2023/02/11 06:24:58;;;;;;;22.50;14.03;;;7.50;99.90;;;;;;5036395;28;20638;-85
2023/02/11 06:27:24;;;;;;;21.03;14.23;;;7.60;99.90;;;;;;5039317;28;20200;-82
2023/02/11 06:29:53;;;;;;;20.57;14.33;;;7.70;99.90;;;;;;5061117;28;20786;-83
2023/02/11 06:32:19;;;;;;;24.80;15.00;;;7.70;99.90;;;;;;5052618;28;20187;-82
2023/02/11 06:34:48;;;;;;;24.53;14.63;;;7.60;99.90;;;;;;5044768;28;20205;-85
2023/02/11 06:37:16;;;;;;;23.03;13.93;;;7.60;99.90;;;;;;5039674;28;20264;-82
2023/02/11 06:39:44;;;;;;;27.27;15.33;;;7.60;99.90;;;;;;5040757;28;20169;-82
2023/02/11 06:42:09;;;;;;;23.60;14.60;;;7.50;99.90;;;;;;5044287;28;20177;-82
2023/02/11 06:44:35;;;;;;;22.23;14.67;;;7.60;99.90;;;;;;5048425;28;20169;-83
2023/02/11 06:47:04;;;;;;;34.57;16.50;;;7.60;99.90;;;;;;5059864;28;20520;-83
2023/02/11 06:49:29;;;;;;;25.37;16.13;;;7.60;99.90;;;;;;5049406;28;20188;-87
2023/02/11 06:51:55;;;;;;;22.57;15.67;;;7.80;99.90;;;;;;5056587;28;20193;-85
2023/02/11 06:54:21;;;;;;;25.77;15.73;;;7.90;99.90;;;;;;5060329;28;20192;-86
2023/02/11 06:56:46;;;;;;;27.20;16.77;;;7.80;99.90;;;;;;5048518;28;20180;-86
2023/02/11 06:59:21;;;;;;;26.87;16.90;;;7.90;99.90;;;;;;5040449;28;20192;-82
2023/02/11 07:01:47;;;;;;;32.43;17.73;;;8.00;99.90;;;;;;5035581;28;20192;-82
2023/02/11 07:04:14;;;;;;;31.93;16.87;;;7.90;99.90;;;;;;5037442;28;20177;-84
2023/02/11 07:06:41;;;;;;;28.53;16.70;;;7.70;99.90;;;;;;5038294;28;20173;-86
2023/02/11 07:09:07;;;;;;;26.17;16.63;;;7.70;99.90;;;;;;5038455;28;20232;-86
2023/02/11 07:11:33;;;;;;;24.80;17.43;;;7.70;99.90;;;;;;5040538;28;20231;-81
2023/02/11 07:14:02;;;;;;;29.53;18.40;;;7.70;99.90;;;;;;5042420;28;20654;-86
2023/02/11 07:16:28;;;;;;;27.40;17.53;;;7.80;99.90;;;;;;5041784;28;20204;-82
2023/02/11 07:18:55;;;;;;;27.43;17.07;;;7.80;99.90;;;;;;5046547;28;20174;-84
2023/02/11 07:21:21;;;;;;;24.27;17.20;;;7.80;99.90;;;;;;5044387;28;20253;-85
2023/02/11 07:23:47;;;;;;;25.73;16.37;;;7.70;99.90;;;;;;5044923;28;20186;-85
2023/02/11 07:26:16;;;;;;;26.30;16.57;;;7.80;99.90;;;;;;5042291;28;20198;-83
2023/02/11 07:28:44;;;;;;;29.73;17.63;;;8.00;99.90;;;;;;5022223;28;20197;-84
2023/02/11 07:31:23;;;;;;;26.57;16.43;;;7.90;99.90;;;;;;5019995;28;20167;-84
2023/02/11 07:33:51;;;;;;;23.50;16.53;;;7.70;99.90;;;;;;5019054;28;20170;-84
2023/02/11 07:36:17;;;;;;;25.57;16.63;;;7.80;99.90;;;;;;5019284;28;20280;-87
2023/02/11 07:38:43;;;;;;;26.47;16.70;;;7.80;99.90;;;;;;5024261;28;20167;-86
2023/02/11 07:41:12;;;;;;;33.13;18.33;;;7.60;99.90;;;;;;5026342;28;20174;-87
2023/02/11 07:43:38;;;;;;;28.00;17.13;;;7.80;99.90;;;;;;5020730;28;20617;-85
2023/02/11 07:46:06;;;;;;;28.80;17.47;;;7.70;99.90;;;;;;5018507;28;20163;-86
2023/02/11 07:48:32;;;;;;;26.97;17.63;;;7.80;99.90;;;;;;5017511;28;20241;-85
2023/02/11 07:51:17;;;;;;;32.70;18.43;;;7.70;99.90;;;;;;5035636;28;20585;-84
2023/02/11 07:53:43;;;;;;;29.00;18.50;;;7.80;99.90;;;;;;5019962;28;20166;-82
2023/02/11 07:56:11;;;;;;;27.73;18.60;;;8.00;99.90;;;;;;5017265;28;20213;-84
2023/02/11 07:58:36;;;;;;;29.30;18.30;;;7.90;99.90;;;;;;5017747;28;20226;-86
2023/02/11 08:01:04;;;;;;;33.00;19.37;;;8.10;99.90;;;;;;5021963;28;20543;-84
2023/02/11 08:03:31;;;;;;;31.07;18.93;;;8.00;99.90;;;;;;5018535;28;20193;-85
2023/02/11 08:05:57;;;;;;;37.43;20.20;;;8.10;99.90;;;;;;5034269;28;20171;-84
2023/02/11 08:08:26;;;;;;;35.43;20.50;;;8.10;99.90;;;;;;5015832;28;20174;-83
2023/02/11 08:10:51;;;;;;;35.93;20.40;;;8.00;99.90;;;;;;5018026;28;20166;-86
2023/02/11 08:13:17;;;;;;;37.80;19.90;;;8.10;99.90;;;;;;5018005;28;20707;-83
2023/02/11 08:15:43;;;;;;;34.37;20.07;;;8.00;99.90;;;;;;5017240;28;20682;-81
2023/02/11 08:18:09;;;;;;;31.10;21.10;;;8.10;99.90;;;;;;5015489;28;20261;-85
2023/02/11 08:20:35;;;;;;;38.47;21.60;;;8.20;99.90;;;;;;5033919;28;20186;-83
2023/02/11 08:23:01;;;;;;;39.10;23.00;;;8.20;99.90;;;;;;5028812;28;20631;-83
2023/02/11 08:25:29;;;;;;;38.23;22.20;;;8.00;99.90;;;;;;5029081;28;20264;-81
2023/02/11 08:27:55;;;;;;;41.67;22.73;;;8.10;99.90;;;;;;5033559;28;20177;-82
2023/02/11 08:30:21;;;;;;;37.70;21.63;;;8.10;99.90;;;;;;5029643;28;20179;-86
2023/02/11 08:32:47;;;;;;;35.50;21.87;;;8.20;99.90;;;;;;5032871;28;20163;-84
2023/02/11 08:35:19;;;;;;;42.83;24.20;;;8.30;99.90;;;;;;5036387;28;20210;-82
2023/02/11 08:37:59;;;;;;;42.17;23.60;;;8.20;99.90;;;;;;5032576;28;20163;-85
2023/02/11 08:40:27;;;;;;;44.43;24.10;;;8.20;99.90;;;;;;5021142;28;20260;-84
2023/02/11 08:42:55;;;;;;;42.37;23.27;;;8.40;99.90;;;;;;5027642;28;20186;-82
2023/02/11 08:45:21;;;;;;;40.17;24.03;;;8.20;99.90;;;;;;5021286;28;20210;-85
2023/02/11 08:47:55;;;;;;;43.07;23.50;;;8.30;99.90;;;;;;5020843;28;20187;-86
2023/02/11 08:50:21;;;;;;;46.00;26.60;;;8.30;99.90;;;;;;5022388;28;20186;-86
2023/02/11 08:52:47;;;;;;;40.30;24.13;;;8.20;99.90;;;;;;5037256;28;20150;-86
2023/02/11 08:55:12;;;;;;;46.60;25.10;;;8.30;99.90;;;;;;5025977;28;20202;-86
2023/02/11 08:57:41;;;;;;;40.63;24.70;;;8.40;99.90;;;;;;5023944;28;20176;-88
2023/02/11 09:00:09;;;;;;;45.23;25.03;;;8.20;99.90;;;;;;5020521;28;20593;-86
2023/02/11 09:02:36;;;;;;;42.63;24.43;;;8.20;99.90;;;;;;5040653;28;20665;-81
2023/02/11 09:05:02;;;;;;;48.47;25.30;;;8.40;99.90;;;;;;5028287;28;20186;-83
2023/02/11 09:07:39;;;;;;;43.47;25.07;;;8.30;99.90;;;;;;5035904;28;20169;-85
2023/02/11 09:10:08;;;;;;;45.40;25.80;;;8.30;99.90;;;;;;5038609;28;20205;-83
2023/02/11 09:12:35;;;;;;;44.57;25.40;;;8.40;99.90;;;;;;5038278;28;20226;-82
2023/02/11 09:15:01;;;;;;;45.50;26.00;;;8.40;99.90;;;;;;5032931;28;20187;-84
2023/02/11 09:17:48;;;;;;;50.57;26.93;;;8.30;99.90;;;;;;5018299;28;20670;-86
2023/02/11 09:20:23;;;;;;;46.37;25.80;;;8.30;99.90;;;;;;5028389;28;20662;-86
2023/02/11 09:22:49;;;;;;;46.37;26.30;;;8.30;99.90;;;;;;5030616;28;20166;-82
2023/02/11 09:25:15;;;;;;;47.23;26.37;;;8.40;99.90;;;;;;5032146;28;20170;-83
2023/02/11 09:27:44;;;;;;;43.17;25.87;;;8.40;99.90;;;;;;5027516;28;20177;-84
2023/02/11 09:30:11;;;;;;;51.63;26.43;;;8.50;99.90;;;;;;5038052;28;20162;-88
2023/02/11 09:32:37;;;;;;;45.00;27.10;;;8.40;99.90;;;;;;5040775;28;20188;-85
2023/02/11 09:35:04;;;;;;;43.57;26.80;;;8.40;99.90;;;;;;5035302;28;20198;-85
2023/02/11 09:37:30;;;;;;;44.93;26.47;;;8.50;99.90;;;;;;5023362;28;20182;-84
2023/02/11 09:39:58;;;;;;;48.53;27.33;;;8.40;99.90;;;;;;5030540;28;20217;-84
2023/02/11 09:42:56;;;;;;;46.80;26.00;;;8.50;99.90;;;;;;5040904;28;20217;-89
2023/02/11 09:45:31;;;;;;;44.37;26.40;;;8.60;99.90;;;;;;5041801;28;20172;-86
2023/02/11 09:48:04;;;;;;;45.73;26.97;;;8.70;99.90;;;;;;5043198;28;20187;-84
2023/02/11 09:50:34;;;;;;;49.07;28.00;;;8.60;99.90;;;;;;5033117;28;20162;-86
2023/02/11 09:53:18;;;;;;;46.83;27.57;;;8.70;99.90;;;;;;5034790;28;20173;-89
2023/02/11 09:55:58;;;;;;;50.00;27.43;;;8.80;99.90;;;;;;5035155;28;20212;-88
2023/02/11 09:58:31;;;;;;;48.50;27.97;;;8.70;99.90;;;;;;5034252;28;20197;-83
2023/02/11 10:00:59;;;;;;;48.23;27.60;;;8.70;99.90;;;;;;5052944;28;20162;-87
2023/02/11 10:03:33;;;;;;;51.50;27.10;;;8.80;99.90;;;;;;5045256;28;20202;-87
2023/02/11 10:06:30;;;;;;;48.80;27.63;;;8.80;99.90;;;;;;5060963;28;20227;-87
2023/02/11 10:09:29;;;;;;;52.77;28.90;;;8.80;99.90;;;;;;5036046;28;20205;-86
2023/02/11 10:11:55;;;;;;;48.27;28.70;;;8.70;99.90;;;;;;5021483;28;20227;-85
2023/02/11 10:14:42;;;;;;;49.37;29.47;;;8.80;99.90;;;;;;5020261;28;20187;-86
2023/02/11 10:17:43;;;;;;;49.17;27.10;;;8.80;99.90;;;;;;5026882;28;20202;-88
2023/02/11 10:20:34;;;;;;;47.17;27.27;;;8.90;99.90;;;;;;5018519;28;20335;-85
2023/02/11 10:23:09;;;;;;;46.17;28.33;;;8.90;99.90;;;;;;5019257;28;20189;-90
2023/02/11 10:25:41;;;;;;;47.53;26.30;;;8.90;99.90;;;;;;5017504;28;20197;-89
2023/02/11 10:28:17;;;;;;;47.17;27.17;;;8.90;99.90;;;;;;5016435;28;20591;-83
2023/02/11 10:30:55;;;;;;;45.30;26.93;;;8.80;99.90;;;;;;5020443;28;20170;-89
2023/02/11 10:33:35;;;;;;;54.77;29.67;;;8.80;99.90;;;;;;5019642;28;20256;-87
2023/02/11 10:36:02;;;;;;;50.47;27.77;;;8.90;99.90;;;;;;5020674;28;20193;-85
2023/02/11 10:38:31;;;;;;;46.57;27.53;;;9.00;99.90;;;;;;5023517;28;20627;-89
2023/02/11 10:40:58;;;;;;;51.47;29.80;;;9.00;99.90;;;;;;5019624;28;20159;-86
2023/02/11 10:43:27;;;;;;;53.93;29.77;;;9.00;99.90;;;;;;5038080;28;20162;-86
2023/02/11 10:46:06;;;;;;;56.77;30.40;;;9.00;99.90;;;;;;5042119;28;20186;-88
2023/02/11 10:49:04;;;;;;;50.17;29.80;;;9.20;99.90;;;;;;5018444;28;20170;-86
2023/02/11 10:51:33;;;;;;;46.37;28.23;;;9.10;99.90;;;;;;5025320;28;20173;-87
2023/02/11 10:54:12;;;;;;;49.83;27.77;;;9.10;99.90;;;;;;5035237;28;20182;-89
2023/02/11 10:56:49;;;;;;;50.93;29.40;;;9.00;99.90;;;;;;5034154;28;20213;-85
2023/02/11 10:59:37;;;;;;;46.30;28.03;;;9.10;99.90;;;;;;5030467;28;20174;-88
2023/02/11 11:02:35;;;;;;;47.53;28.10;;;9.00;99.90;;;;;;5054477;28;20249;-86
2023/02/11 11:05:17;;;;;;;50.93;30.27;;;9.20;99.90;;;;;;5028704;28;20901;-85
2023/02/11 11:08:12;;;;;;;48.43;28.77;;;9.10;99.90;;;;;;5017659;28;20223;-84
2023/02/11 11:11:02;;;;;;;56.37;30.83;;;9.00;99.90;;;;;;5016415;28;20191;-83
2023/02/11 11:13:38;;;;;;;52.70;29.53;;;9.10;99.90;;;;;;5016726;28;20232;-83
2023/02/11 11:16:13;;;;;;;50.70;30.03;;;9.00;99.90;;;;;;5021045;28;20242;-85
2023/02/11 11:18:44;;;;;;;50.40;30.00;;;9.10;99.90;;;;;;5022420;28;20169;-84
2023/02/11 11:21:25;;;;;;;55.13;29.93;;;9.20;99.90;;;;;;5039624;28;20244;-87
2023/02/11 11:23:59;;;;;;;48.37;30.17;;;9.10;99.90;;;;;;5038331;28;20668;-85
2023/02/11 11:26:28;;;;;;;51.03;30.50;;;9.20;99.90;;;;;;5039323;28;20255;-87
2023/02/11 11:28:56;;;;;;;50.10;30.30;;;9.20;99.90;;;;;;5039037;28;20189;-87
2023/02/11 11:31:33;;;;;;;47.27;29.83;;;9.40;99.90;;;;;;5040724;28;20188;-85
2023/02/11 11:34:05;;;;;;;47.63;30.67;;;9.40;99.90;;;;;;5042631;28;20193;-84
2023/02/11 11:36:38;;;;;;;50.60;30.63;;;9.40;99.90;;;;;;5025793;28;20182;-85
2023/02/11 11:39:24;;;;;;;47.57;28.83;;;9.40;99.90;;;;;;5046648;28;20151;-82
2023/02/11 11:41:58;;;;;;;51.57;32.23;;;9.50;99.90;;;;;;5032112;28;20177;-85
2023/02/11 11:44:31;;;;;;;50.50;30.57;;;9.50;99.90;;;;;;5045488;28;20162;-83
2023/02/11 11:47:40;;;;;;;55.63;32.00;;;9.50;99.90;;;;;;5047227;28;20174;-85
2023/02/11 11:50:35;;;;;;;55.47;31.03;;;9.50;99.90;;;;;;5048928;28;20172;-89
2023/02/11 11:53:43;;;;;;;51.80;30.33;;;9.40;99.90;;;;;;5042909;28;20166;-87
2023/02/11 11:56:13;;;;;;;50.50;30.53;;;9.40;99.90;;;;;;5036852;28;20205;-86
2023/02/11 11:58:39;;;;;;;53.73;31.30;;;9.40;99.90;;;;;;5048652;28;20217;-85
2023/02/11 12:01:27;;;;;;;50.77;29.83;;;9.40;99.90;;;;;;5055289;28;20390;-83
2023/02/11 12:04:29;;;;;;;60.37;32.43;;;9.30;99.90;;;;;;5055122;28;20205;-84
2023/02/11 12:10:55;;;;;;;53.23;32.10;;;9.40;99.90;;;;;;5046819;28;20176;-85
2023/02/11 12:13:53;;;;;;;56.57;32.80;;;9.40;99.90;;;;;;5042505;28;20173;-86
2023/02/11 12:16:21;;;;;;;52.97;31.23;;;9.50;99.90;;;;;;5052859;28;20638;-84
2023/02/11 12:19:30;;;;;;;58.00;32.63;;;9.50;99.90;;;;;;5039613;28;20176;-83
2023/02/11 12:22:15;;;;;;;56.23;32.17;;;9.60;99.90;;;;;;5018665;28;20601;-85
2023/02/11 12:24:41;;;;;;;52.03;32.40;;;9.50;99.90;;;;;;5036000;28;20185;-86
2023/02/11 12:27:13;;;;;;;53.77;32.20;;;9.60;99.90;;;;;;5037389;28;20193;-88
2023/02/11 12:30:12;;;;;;;57.67;32.03;;;9.60;99.90;;;;;;5040138;28;20169;-88
2023/02/11 12:32:50;;;;;;;54.73;31.33;;;9.60;99.90;;;;;;5049107;28;20190;-87
2023/02/11 12:35:34;;;;;;;48.03;29.63;;;9.70;99.90;;;;;;5027046;28;20209;-85
2023/02/11 12:38:37;;;;;;;49.90;31.10;;;9.70;99.90;;;;;;5046142;28;20209;-86
2023/02/11 12:44:22;;;;;;;55.80;31.53;;;9.80;99.90;;;;;;5019615;28;20213;-86
2023/02/11 12:47:09;;;;;;;52.07;32.77;;;9.90;99.90;;;;;;5038038;28;20495;-86
2023/02/11 12:49:51;;;;;;;56.83;33.80;;;10.00;99.30;;;;;;5036968;28;20169;-82
2023/02/11 12:52:52;;;;;;;54.13;32.47;;;10.00;99.00;;;;;;5036219;28;20230;-85
2023/02/11 12:55:36;;;;;;;51.30;31.40;;;10.00;98.70;;;;;;5032792;28;20304;-91
2023/02/11 12:58:05;;;;;;;54.00;31.63;;;9.90;99.80;;;;;;5019306;28;20202;-87
2023/02/11 13:00:44;;;;;;;48.10;32.33;;;9.90;99.90;;;;;;5022739;28;20154;-86
2023/02/11 13:03:11;;;;;;;50.17;31.70;;;9.80;99.90;;;;;;5022184;28;20181;-87
2023/02/11 13:05:39;;;;;;;52.10;31.67;;;9.90;99.90;;;;;;5020083;28;20174;-85
2023/02/11 13:08:21;;;;;;;54.03;32.67;;;9.90;99.20;;;;;;5019871;28;20194;-89
2023/02/11 13:10:51;;;;;;;56.40;33.20;;;10.00;99.30;;;;;;5034268;28;20171;-88
2023/02/11 13:13:25;;;;;;;55.70;33.23;;;10.00;99.90;;;;;;5020086;28;20170;-88
2023/02/11 13:15:57;;;;;;;61.70;32.83;;;9.90;99.80;;;;;;5026840;28;20225;-85
2023/02/11 13:18:48;;;;;;;52.80;31.60;;;9.90;99.90;;;;;;5034099;28;20182;-84
2023/02/11 13:21:25;;;;;;;53.40;32.80;;;9.90;99.70;;;;;;5035636;28;20195;-85